sensor_id;sensor_type;location;lat;lon;timestamp;P1;durP1;ratioP1;P2;durP2;ratioP2
27293;SDS011;14785;52.556;13.430;2023-04-25T00:02:24;5.20;;;2.17;;
27293;SDS011;14785;52.556;13.430;2023-04-25T00:04:50;4.68;;;1.90;;
27293;SDS011;14785;52.556;13.430;2023-04-25T00:07:15;7.23;;;2.00;;
27293;SDS011;14785;52.556;13.430;2023-04-25T00:09:41;4.47;;;2.53;;
27293;SDS011;14785;52.556;13.430;2023-04-25T00:12:07;4.17;;;2.33;;
27293;SDS011;14785;52.556;13.430;2023-04-25T00:14:33;2.80;;;1.58;;
27293;SDS011;14785;52.556;13.430;2023-04-25T00:17:01;6.03;;;1.98;;
27293;SDS011;14785;52.556;13.430;2023-04-25T00:21:54;5.40;;;2.50;;
27293;SDS011;14785;52.556;13.430;2023-04-25T00:24:20;2.13;;;1.58;;
27293;SDS011;14785;52.556;13.430;2023-04-25T00:26:45;10.73;;;2.30;;
27293;SDS011;14785;52.556;13.430;2023-04-25T00:29:11;8.40;;;1.60;;
27293;SDS011;14785;52.556;13.430;2023-04-25T00:31:36;2.13;;;1.43;;
27293;SDS011;14785;52.556;13.430;2023-04-25T00:34:01;5.40;;;1.43;;
27293;SDS011;14785;52.556;13.430;2023-04-25T00:36:27;6.20;;;1.37;;
27293;SDS011;14785;52.556;13.430;2023-04-25T00:38:53;5.47;;;2.33;;
27293;SDS011;14785;52.556;13.430;2023-04-25T00:41:19;2.70;;;1.48;;
27293;SDS011;14785;52.556;13.430;2023-04-25T00:43:45;3.83;;;1.87;;
27293;SDS011;14785;52.556;13.430;2023-04-25T00:46:12;10.48;;;2.58;;
27293;SDS011;14785;52.556;13.430;2023-04-25T00:48:38;14.30;;;2.57;;
27293;SDS011;14785;52.556;13.430;2023-04-25T00:51:03;5.93;;;2.23;;
27293;SDS011;14785;52.556;13.430;2023-04-25T00:53:28;8.40;;;1.67;;
27293;SDS011;14785;52.556;13.430;2023-04-25T00:55:55;3.75;;;2.30;;
27293;SDS011;14785;52.556;13.430;2023-04-25T00:58:21;4.95;;;1.77;;
27293;SDS011;14785;52.556;13.430;2023-04-25T01:00:47;2.83;;;1.38;;
27293;SDS011;14785;52.556;13.430;2023-04-25T01:03:16;4.60;;;2.17;;
27293;SDS011;14785;52.556;13.430;2023-04-25T01:05:44;2.08;;;1.77;;
27293;SDS011;14785;52.556;13.430;2023-04-25T01:08:10;8.23;;;1.75;;
27293;SDS011;14785;52.556;13.430;2023-04-25T01:10:35;1.97;;;1.43;;
27293;SDS011;14785;52.556;13.430;2023-04-25T01:13:01;6.33;;;2.40;;
27293;SDS011;14785;52.556;13.430;2023-04-25T01:15:29;2.78;;;1.55;;
27293;SDS011;14785;52.556;13.430;2023-04-25T01:17:54;3.00;;;1.63;;
27293;SDS011;14785;52.556;13.430;2023-04-25T01:20:21;7.40;;;2.50;;
27293;SDS011;14785;52.556;13.430;2023-04-25T01:22:48;3.78;;;1.65;;
27293;SDS011;14785;52.556;13.430;2023-04-25T01:25:14;4.10;;;2.10;;
27293;SDS011;14785;52.556;13.430;2023-04-25T01:27:39;9.53;;;2.80;;
27293;SDS011;14785;52.556;13.430;2023-04-25T01:30:06;3.05;;;1.95;;
27293;SDS011;14785;52.556;13.430;2023-04-25T01:35:04;7.10;;;3.20;;
27293;SDS011;14785;52.556;13.430;2023-04-25T01:37:35;4.22;;;1.70;;
27293;SDS011;14785;52.556;13.430;2023-04-25T01:40:04;4.13;;;1.65;;
27293;SDS011;14785;52.556;13.430;2023-04-25T01:42:31;3.63;;;1.98;;
27293;SDS011;14785;52.556;13.430;2023-04-25T01:44:57;2.83;;;1.73;;
27293;SDS011;14785;52.556;13.430;2023-04-25T01:47:23;3.85;;;2.00;;
27293;SDS011;14785;52.556;13.430;2023-04-25T01:49:48;6.83;;;2.20;;
27293;SDS011;14785;52.556;13.430;2023-04-25T01:52:14;2.67;;;1.67;;
27293;SDS011;14785;52.556;13.430;2023-04-25T01:54:40;6.97;;;2.10;;
27293;SDS011;14785;52.556;13.430;2023-04-25T01:57:09;4.40;;;1.70;;
27293;SDS011;14785;52.556;13.430;2023-04-25T01:59:35;4.45;;;2.17;;
27293;SDS011;14785;52.556;13.430;2023-04-25T02:02:01;8.48;;;2.72;;
27293;SDS011;14785;52.556;13.430;2023-04-25T02:04:28;12.02;;;2.83;;
27293;SDS011;14785;52.556;13.430;2023-04-25T02:06:57;13.07;;;3.42;;
27293;SDS011;14785;52.556;13.430;2023-04-25T02:09:23;11.82;;;2.85;;
27293;SDS011;14785;52.556;13.430;2023-04-25T02:11:48;2.67;;;1.80;;
27293;SDS011;14785;52.556;13.430;2023-04-25T02:14:14;5.73;;;2.33;;
27293;SDS011;14785;52.556;13.430;2023-04-25T02:16:40;5.77;;;1.87;;
27293;SDS011;14785;52.556;13.430;2023-04-25T02:19:05;6.80;;;2.47;;
27293;SDS011;14785;52.556;13.430;2023-04-25T02:21:31;6.97;;;3.20;;
27293;SDS011;14785;52.556;13.430;2023-04-25T02:23:57;7.63;;;2.75;;
27293;SDS011;14785;52.556;13.430;2023-04-25T02:26:22;7.30;;;3.23;;
27293;SDS011;14785;52.556;13.430;2023-04-25T02:28:51;8.65;;;2.50;;
27293;SDS011;14785;52.556;13.430;2023-04-25T02:31:17;6.17;;;2.33;;
27293;SDS011;14785;52.556;13.430;2023-04-25T02:33:42;6.60;;;3.07;;
27293;SDS011;14785;52.556;13.430;2023-04-25T02:36:08;6.10;;;2.27;;
27293;SDS011;14785;52.556;13.430;2023-04-25T02:38:33;6.40;;;2.67;;
27293;SDS011;14785;52.556;13.430;2023-04-25T02:40:58;6.20;;;2.40;;
27293;SDS011;14785;52.556;13.430;2023-04-25T02:43:24;5.37;;;2.57;;
27293;SDS011;14785;52.556;13.430;2023-04-25T02:45:49;9.33;;;2.63;;
27293;SDS011;14785;52.556;13.430;2023-04-25T02:48:15;4.23;;;1.97;;
27293;SDS011;14785;52.556;13.430;2023-04-25T02:50:40;6.47;;;3.03;;
27293;SDS011;14785;52.556;13.430;2023-04-25T02:53:06;10.97;;;2.40;;
27293;SDS011;14785;52.556;13.430;2023-04-25T02:55:31;9.00;;;3.53;;
27293;SDS011;14785;52.556;13.430;2023-04-25T02:57:56;5.37;;;2.33;;
27293;SDS011;14785;52.556;13.430;2023-04-25T03:00:22;8.13;;;3.30;;
27293;SDS011;14785;52.556;13.430;2023-04-25T03:02:47;8.10;;;2.47;;
27293;SDS011;14785;52.556;13.430;2023-04-25T03:05:13;6.37;;;3.03;;
27293;SDS011;14785;52.556;13.430;2023-04-25T03:07:39;5.17;;;2.10;;
27293;SDS011;14785;52.556;13.430;2023-04-25T03:10:06;11.38;;;3.33;;
27293;SDS011;14785;52.556;13.430;2023-04-25T03:12:32;10.02;;;4.00;;
27293;SDS011;14785;52.556;13.430;2023-04-25T03:14:57;5.20;;;2.27;;
27293;SDS011;14785;52.556;13.430;2023-04-25T03:17:23;5.20;;;3.07;;
27293;SDS011;14785;52.556;13.430;2023-04-25T03:19:48;4.57;;;2.53;;
27293;SDS011;14785;52.556;13.430;2023-04-25T03:22:13;4.87;;;2.47;;
27293;SDS011;14785;52.556;13.430;2023-04-25T03:24:39;5.60;;;2.47;;
27293;SDS011;14785;52.556;13.430;2023-04-25T03:27:05;4.68;;;3.00;;
27293;SDS011;14785;52.556;13.430;2023-04-25T03:29:30;9.47;;;2.30;;
27293;SDS011;14785;52.556;13.430;2023-04-25T03:31:55;10.53;;;2.87;;
27293;SDS011;14785;52.556;13.430;2023-04-25T03:34:21;9.47;;;2.63;;
27293;SDS011;14785;52.556;13.430;2023-04-25T03:36:46;5.67;;;2.30;;
27293;SDS011;14785;52.556;13.430;2023-04-25T03:39:12;7.40;;;2.72;;
27293;SDS011;14785;52.556;13.430;2023-04-25T03:41:37;8.40;;;3.03;;
27293;SDS011;14785;52.556;13.430;2023-04-25T03:44:03;3.27;;;2.27;;
27293;SDS011;14785;52.556;13.430;2023-04-25T03:46:28;4.27;;;3.03;;
27293;SDS011;14785;52.556;13.430;2023-04-25T03:48:54;13.97;;;3.70;;
27293;SDS011;14785;52.556;13.430;2023-04-25T03:51:19;7.53;;;2.07;;
27293;SDS011;14785;52.556;13.430;2023-04-25T03:53:45;12.83;;;3.13;;
27293;SDS011;14785;52.556;13.430;2023-04-25T03:56:10;8.63;;;2.37;;
27293;SDS011;14785;52.556;13.430;2023-04-25T03:58:36;9.73;;;2.75;;
27293;SDS011;14785;52.556;13.430;2023-04-25T04:01:01;5.63;;;3.53;;
27293;SDS011;14785;52.556;13.430;2023-04-25T04:03:32;8.90;;;3.47;;
27293;SDS011;14785;52.556;13.430;2023-04-25T04:06:00;5.25;;;2.25;;
27293;SDS011;14785;52.556;13.430;2023-04-25T04:08:25;11.00;;;3.97;;
27293;SDS011;14785;52.556;13.430;2023-04-25T04:10:51;9.63;;;3.17;;
27293;SDS011;14785;52.556;13.430;2023-04-25T04:13:16;6.87;;;2.30;;
27293;SDS011;14785;52.556;13.430;2023-04-25T04:15:41;6.03;;;2.83;;
27293;SDS011;14785;52.556;13.430;2023-04-25T04:18:07;4.67;;;2.50;;
27293;SDS011;14785;52.556;13.430;2023-04-25T04:20:32;7.07;;;2.77;;
27293;SDS011;14785;52.556;13.430;2023-04-25T04:22:58;11.97;;;3.27;;
27293;SDS011;14785;52.556;13.430;2023-04-25T04:25:23;5.17;;;3.13;;
27293;SDS011;14785;52.556;13.430;2023-04-25T04:27:49;12.85;;;3.90;;
27293;SDS011;14785;52.556;13.430;2023-04-25T04:30:19;4.47;;;2.85;;
27293;SDS011;14785;52.556;13.430;2023-04-25T04:32:45;10.38;;;2.63;;
27293;SDS011;14785;52.556;13.430;2023-04-25T04:35:10;4.63;;;2.23;;
27293;SDS011;14785;52.556;13.430;2023-04-25T04:37:36;5.13;;;2.20;;
27293;SDS011;14785;52.556;13.430;2023-04-25T04:40:01;5.70;;;2.03;;
27293;SDS011;14785;52.556;13.430;2023-04-25T04:42:30;9.55;;;2.58;;
27293;SDS011;14785;52.556;13.430;2023-04-25T04:44:55;10.27;;;2.53;;
27293;SDS011;14785;52.556;13.430;2023-04-25T04:47:20;5.20;;;2.30;;
27293;SDS011;14785;52.556;13.430;2023-04-25T04:49:48;4.88;;;2.58;;
27293;SDS011;14785;52.556;13.430;2023-04-25T04:52:14;10.17;;;3.20;;
27293;SDS011;14785;52.556;13.430;2023-04-25T04:54:39;8.53;;;2.33;;
27293;SDS011;14785;52.556;13.430;2023-04-25T04:57:05;6.53;;;3.23;;
27293;SDS011;14785;52.556;13.430;2023-04-25T04:59:30;6.85;;;2.25;;
27293;SDS011;14785;52.556;13.430;2023-04-25T05:01:57;6.57;;;2.73;;
27293;SDS011;14785;52.556;13.430;2023-04-25T05:04:24;7.63;;;2.83;;
27293;SDS011;14785;52.556;13.430;2023-04-25T05:06:49;5.22;;;2.25;;
27293;SDS011;14785;52.556;13.430;2023-04-25T05:09:15;20.20;;;2.97;;
27293;SDS011;14785;52.556;13.430;2023-04-25T05:11:41;4.07;;;2.53;;
27293;SDS011;14785;52.556;13.430;2023-04-25T05:14:07;8.63;;;2.60;;
27293;SDS011;14785;52.556;13.430;2023-04-25T05:16:32;7.40;;;2.87;;
27293;SDS011;14785;52.556;13.430;2023-04-25T05:18:58;5.93;;;2.07;;
27293;SDS011;14785;52.556;13.430;2023-04-25T05:21:23;5.30;;;2.57;;
27293;SDS011;14785;52.556;13.430;2023-04-25T05:23:49;7.50;;;3.63;;
27293;SDS011;14785;52.556;13.430;2023-04-25T05:26:14;7.60;;;2.50;;
27293;SDS011;14785;52.556;13.430;2023-04-25T05:28:40;5.43;;;2.70;;
27293;SDS011;14785;52.556;13.430;2023-04-25T05:31:06;8.68;;;3.05;;
27293;SDS011;14785;52.556;13.430;2023-04-25T05:33:33;9.93;;;3.22;;
27293;SDS011;14785;52.556;13.430;2023-04-25T05:36:00;9.48;;;3.10;;
27293;SDS011;14785;52.556;13.430;2023-04-25T05:38:25;6.77;;;2.93;;
27293;SDS011;14785;52.556;13.430;2023-04-25T05:40:51;3.83;;;2.70;;
27293;SDS011;14785;52.556;13.430;2023-04-25T05:43:17;9.07;;;2.83;;
27293;SDS011;14785;52.556;13.430;2023-04-25T05:45:44;8.00;;;2.90;;
27293;SDS011;14785;52.556;13.430;2023-04-25T05:48:09;9.47;;;2.77;;
27293;SDS011;14785;52.556;13.430;2023-04-25T05:50:35;4.87;;;2.80;;
27293;SDS011;14785;52.556;13.430;2023-04-25T05:53:00;15.37;;;2.93;;
27293;SDS011;14785;52.556;13.430;2023-04-25T05:55:25;6.20;;;2.70;;
27293;SDS011;14785;52.556;13.430;2023-04-25T05:57:51;12.07;;;3.20;;
27293;SDS011;14785;52.556;13.430;2023-04-25T06:00:16;4.37;;;2.70;;
27293;SDS011;14785;52.556;13.430;2023-04-25T06:02:43;8.65;;;2.70;;
27293;SDS011;14785;52.556;13.430;2023-04-25T06:05:09;6.77;;;2.80;;
27293;SDS011;14785;52.556;13.430;2023-04-25T06:07:34;4.73;;;2.40;;
27293;SDS011;14785;52.556;13.430;2023-04-25T06:10:00;16.20;;;3.27;;
27293;SDS011;14785;52.556;13.430;2023-04-25T06:12:25;5.30;;;3.07;;
27293;SDS011;14785;52.556;13.430;2023-04-25T06:14:51;12.03;;;3.53;;
27293;SDS011;14785;52.556;13.430;2023-04-25T06:17:17;6.77;;;3.40;;
27293;SDS011;14785;52.556;13.430;2023-04-25T06:19:42;9.90;;;2.83;;
27293;SDS011;14785;52.556;13.430;2023-04-25T06:22:07;17.33;;;3.30;;
27293;SDS011;14785;52.556;13.430;2023-04-25T06:24:33;5.83;;;2.40;;
27293;SDS011;14785;52.556;13.430;2023-04-25T06:26:59;16.38;;;4.60;;
27293;SDS011;14785;52.556;13.430;2023-04-25T06:29:25;9.40;;;3.90;;
27293;SDS011;14785;52.556;13.430;2023-04-25T06:31:50;6.63;;;2.70;;
27293;SDS011;14785;52.556;13.430;2023-04-25T06:34:16;5.30;;;2.50;;
27293;SDS011;14785;52.556;13.430;2023-04-25T06:36:42;8.60;;;2.73;;
27293;SDS011;14785;52.556;13.430;2023-04-25T06:39:09;10.32;;;3.83;;
27293;SDS011;14785;52.556;13.430;2023-04-25T06:41:34;8.87;;;3.83;;
27293;SDS011;14785;52.556;13.430;2023-04-25T06:44:00;4.05;;;2.72;;
27293;SDS011;14785;52.556;13.430;2023-04-25T06:46:26;5.50;;;2.67;;
27293;SDS011;14785;52.556;13.430;2023-04-25T06:48:51;11.75;;;3.78;;
27293;SDS011;14785;52.556;13.430;2023-04-25T06:51:17;7.77;;;3.03;;
27293;SDS011;14785;52.556;13.430;2023-04-25T06:53:42;15.50;;;2.90;;
27293;SDS011;14785;52.556;13.430;2023-04-25T06:56:08;8.83;;;4.37;;
27293;SDS011;14785;52.556;13.430;2023-04-25T06:58:33;14.43;;;3.63;;
27293;SDS011;14785;52.556;13.430;2023-04-25T07:00:58;7.90;;;4.23;;
27293;SDS011;14785;52.556;13.430;2023-04-25T07:03:24;9.43;;;4.00;;
27293;SDS011;14785;52.556;13.430;2023-04-25T07:05:50;6.77;;;3.57;;
27293;SDS011;14785;52.556;13.430;2023-04-25T07:08:15;6.43;;;2.93;;
27293;SDS011;14785;52.556;13.430;2023-04-25T07:10:41;10.00;;;2.72;;
27293;SDS011;14785;52.556;13.430;2023-04-25T07:13:07;15.67;;;3.63;;
27293;SDS011;14785;52.556;13.430;2023-04-25T07:15:32;4.80;;;2.73;;
27293;SDS011;14785;52.556;13.430;2023-04-25T07:17:58;12.93;;;3.53;;
27293;SDS011;14785;52.556;13.430;2023-04-25T07:20:24;7.28;;;3.45;;
27293;SDS011;14785;52.556;13.430;2023-04-25T07:22:50;7.03;;;2.85;;
27293;SDS011;14785;52.556;13.430;2023-04-25T07:25:15;7.17;;;3.63;;
27293;SDS011;14785;52.556;13.430;2023-04-25T07:30:07;7.85;;;3.45;;
27293;SDS011;14785;52.556;13.430;2023-04-25T07:32:33;8.02;;;3.60;;
27293;SDS011;14785;52.556;13.430;2023-04-25T07:34:59;21.95;;;3.55;;
27293;SDS011;14785;52.556;13.430;2023-04-25T07:37:24;4.87;;;2.50;;
27293;SDS011;14785;52.556;13.430;2023-04-25T07:42:16;9.13;;;2.60;;
27293;SDS011;14785;52.556;13.430;2023-04-25T07:44:41;3.07;;;2.00;;
27293;SDS011;14785;52.556;13.430;2023-04-25T07:47:07;9.37;;;2.70;;
27293;SDS011;14785;52.556;13.430;2023-04-25T07:49:34;9.00;;;1.95;;
27293;SDS011;14785;52.556;13.430;2023-04-25T07:52:00;14.85;;;1.88;;
27293;SDS011;14785;52.556;13.430;2023-04-25T07:54:26;8.40;;;2.03;;
27293;SDS011;14785;52.556;13.430;2023-04-25T07:56:51;10.77;;;3.13;;
27293;SDS011;14785;52.556;13.430;2023-04-25T07:59:17;15.10;;;3.43;;
27293;SDS011;14785;52.556;13.430;2023-04-25T08:01:42;8.33;;;3.40;;
27293;SDS011;14785;52.556;13.430;2023-04-25T08:04:08;15.60;;;3.17;;
27293;SDS011;14785;52.556;13.430;2023-04-25T08:06:33;10.13;;;3.03;;
27293;SDS011;14785;52.556;13.430;2023-04-25T08:08:58;3.33;;;1.70;;
27293;SDS011;14785;52.556;13.430;2023-04-25T08:11:24;10.83;;;3.17;;
27293;SDS011;14785;52.556;13.430;2023-04-25T08:13:50;13.00;;;2.95;;
27293;SDS011;14785;52.556;13.430;2023-04-25T08:16:15;9.33;;;1.73;;
27293;SDS011;14785;52.556;13.430;2023-04-25T08:18:41;12.73;;;3.20;;
27293;SDS011;14785;52.556;13.430;2023-04-25T08:21:07;11.02;;;2.40;;
27293;SDS011;14785;52.556;13.430;2023-04-25T08:23:33;14.13;;;3.15;;
27293;SDS011;14785;52.556;13.430;2023-04-25T08:25:59;10.00;;;3.20;;
27293;SDS011;14785;52.556;13.430;2023-04-25T08:28:25;12.10;;;2.73;;
27293;SDS011;14785;52.556;13.430;2023-04-25T08:30:50;7.47;;;2.30;;
27293;SDS011;14785;52.556;13.430;2023-04-25T08:33:16;10.83;;;2.87;;
27293;SDS011;14785;52.556;13.430;2023-04-25T08:35:42;12.80;;;2.97;;
27293;SDS011;14785;52.556;13.430;2023-04-25T08:38:09;7.63;;;2.45;;
27293;SDS011;14785;52.556;13.430;2023-04-25T08:40:37;10.80;;;2.17;;
27293;SDS011;14785;52.556;13.430;2023-04-25T08:43:06;12.07;;;3.17;;
27293;SDS011;14785;52.556;13.430;2023-04-25T08:45:36;10.55;;;3.10;;
27293;SDS011;14785;52.556;13.430;2023-04-25T08:48:07;12.80;;;3.17;;
27293;SDS011;14785;52.556;13.430;2023-04-25T08:50:35;11.63;;;2.78;;
27293;SDS011;14785;52.556;13.430;2023-04-25T08:53:03;8.93;;;2.03;;
27293;SDS011;14785;52.556;13.430;2023-04-25T08:55:31;8.25;;;2.38;;
27293;SDS011;14785;52.556;13.430;2023-04-25T08:57:58;11.15;;;2.97;;
27293;SDS011;14785;52.556;13.430;2023-04-25T09:00:25;5.43;;;2.15;;
27293;SDS011;14785;52.556;13.430;2023-04-25T09:02:51;11.00;;;2.07;;
27293;SDS011;14785;52.556;13.430;2023-04-25T09:07:43;7.72;;;2.58;;
27293;SDS011;14785;52.556;13.430;2023-04-25T09:10:08;11.70;;;2.03;;
27293;SDS011;14785;52.556;13.430;2023-04-25T09:12:34;15.50;;;2.00;;
27293;SDS011;14785;52.556;13.430;2023-04-25T09:15:04;12.48;;;2.85;;
27293;SDS011;14785;52.556;13.430;2023-04-25T09:17:33;8.02;;;2.50;;
27293;SDS011;14785;52.556;13.430;2023-04-25T09:20:05;6.93;;;2.37;;
27293;SDS011;14785;52.556;13.430;2023-04-25T09:22:35;5.25;;;1.67;;
27293;SDS011;14785;52.556;13.430;2023-04-25T09:25:02;7.82;;;2.35;;
27293;SDS011;14785;52.556;13.430;2023-04-25T09:27:57;10.90;;;2.67;;
27293;SDS011;14785;52.556;13.430;2023-04-25T09:30:29;14.55;;;2.47;;
27293;SDS011;14785;52.556;13.430;2023-04-25T09:33:08;6.78;;;2.22;;
27293;SDS011;14785;52.556;13.430;2023-04-25T09:35:37;11.25;;;3.92;;
27293;SDS011;14785;52.556;13.430;2023-04-25T09:38:21;5.00;;;1.52;;
27293;SDS011;14785;52.556;13.430;2023-04-25T09:40:47;8.50;;;2.53;;
27293;SDS011;14785;52.556;13.430;2023-04-25T09:43:24;8.68;;;2.25;;
27293;SDS011;14785;52.556;13.430;2023-04-25T09:45:53;8.20;;;2.20;;
27293;SDS011;14785;52.556;13.430;2023-04-25T09:48:24;6.68;;;1.83;;
27293;SDS011;14785;52.556;13.430;2023-04-25T09:51:03;10.07;;;1.58;;
27293;SDS011;14785;52.556;13.430;2023-04-25T09:53:44;6.30;;;2.08;;
27293;SDS011;14785;52.556;13.430;2023-04-25T09:56:12;8.32;;;2.80;;
27293;SDS011;14785;52.556;13.430;2023-04-25T09:58:39;4.13;;;1.65;;
27293;SDS011;14785;52.556;13.430;2023-04-25T10:01:09;5.80;;;1.55;;
27293;SDS011;14785;52.556;13.430;2023-04-25T10:03:39;9.02;;;1.88;;
27293;SDS011;14785;52.556;13.430;2023-04-25T10:06:09;7.30;;;1.70;;
27293;SDS011;14785;52.556;13.430;2023-04-25T10:08:39;4.63;;;1.77;;
27293;SDS011;14785;52.556;13.430;2023-04-25T10:11:07;11.07;;;1.73;;
27293;SDS011;14785;52.556;13.430;2023-04-25T10:13:33;7.05;;;2.67;;
27293;SDS011;14785;52.556;13.430;2023-04-25T10:16:02;4.00;;;1.65;;
27293;SDS011;14785;52.556;13.430;2023-04-25T10:18:29;5.55;;;1.00;;
27293;SDS011;14785;52.556;13.430;2023-04-25T10:20:57;6.10;;;1.92;;
27293;SDS011;14785;52.556;13.430;2023-04-25T10:23:25;5.10;;;1.65;;
27293;SDS011;14785;52.556;13.430;2023-04-25T10:25:51;14.13;;;1.70;;
27293;SDS011;14785;52.556;13.430;2023-04-25T10:28:18;15.52;;;2.05;;
27293;SDS011;14785;52.556;13.430;2023-04-25T10:30:57;5.15;;;1.95;;
27293;SDS011;14785;52.556;13.430;2023-04-25T10:33:33;3.78;;;1.38;;
27293;SDS011;14785;52.556;13.430;2023-04-25T10:36:09;2.67;;;1.60;;
27293;SDS011;14785;52.556;13.430;2023-04-25T10:38:40;6.25;;;1.40;;
27293;SDS011;14785;52.556;13.430;2023-04-25T10:41:07;3.60;;;1.10;;
27293;SDS011;14785;52.556;13.430;2023-04-25T10:43:35;5.78;;;2.22;;
27293;SDS011;14785;52.556;13.430;2023-04-25T10:48:44;6.28;;;0.98;;
27293;SDS011;14785;52.556;13.430;2023-04-25T10:51:18;5.35;;;2.35;;
27293;SDS011;14785;52.556;13.430;2023-04-25T10:53:46;3.67;;;1.48;;
27293;SDS011;14785;52.556;13.430;2023-04-25T10:56:27;4.10;;;1.50;;
27293;SDS011;14785;52.556;13.430;2023-04-25T10:59:15;5.70;;;1.98;;
27293;SDS011;14785;52.556;13.430;2023-04-25T11:07:10;9.20;;;2.38;;
27293;SDS011;14785;52.556;13.430;2023-04-25T11:09:47;7.95;;;1.77;;
27293;SDS011;14785;52.556;13.430;2023-04-25T11:12:14;6.65;;;1.17;;
27293;SDS011;14785;52.556;13.430;2023-04-25T11:14:41;5.65;;;1.13;;
27293;SDS011;14785;52.556;13.430;2023-04-25T11:17:06;5.73;;;1.43;;
27293;SDS011;14785;52.556;13.430;2023-04-25T11:19:32;4.82;;;1.75;;
27293;SDS011;14785;52.556;13.430;2023-04-25T11:21:58;11.27;;;2.17;;
27293;SDS011;14785;52.556;13.430;2023-04-25T11:24:25;3.78;;;1.50;;
27293;SDS011;14785;52.556;13.430;2023-04-25T11:26:53;5.47;;;1.23;;
27293;SDS011;14785;52.556;13.430;2023-04-25T11:29:18;3.70;;;1.63;;
27293;SDS011;14785;52.556;13.430;2023-04-25T11:31:47;3.42;;;1.17;;
27293;SDS011;14785;52.556;13.430;2023-04-25T11:34:16;4.87;;;1.63;;
27293;SDS011;14785;52.556;13.430;2023-04-25T11:36:43;6.50;;;1.60;;
27293;SDS011;14785;52.556;13.430;2023-04-25T11:39:10;4.50;;;1.35;;
27293;SDS011;14785;52.556;13.430;2023-04-25T11:41:37;2.20;;;1.33;;
27293;SDS011;14785;52.556;13.430;2023-04-25T11:44:03;6.90;;;1.90;;
27293;SDS011;14785;52.556;13.430;2023-04-25T11:46:29;4.03;;;1.55;;
27293;SDS011;14785;52.556;13.430;2023-04-25T11:48:54;2.53;;;0.73;;
27293;SDS011;14785;52.556;13.430;2023-04-25T11:51:20;2.75;;;1.52;;
27293;SDS011;14785;52.556;13.430;2023-04-25T11:53:46;4.20;;;1.40;;
27293;SDS011;14785;52.556;13.430;2023-04-25T11:56:12;2.50;;;1.10;;
27293;SDS011;14785;52.556;13.430;2023-04-25T12:04:15;2.30;;;1.15;;
27293;SDS011;14785;52.556;13.430;2023-04-25T12:06:43;3.45;;;1.40;;
27293;SDS011;14785;52.556;13.430;2023-04-25T12:09:13;8.05;;;1.27;;
27293;SDS011;14785;52.556;13.430;2023-04-25T12:11:47;5.43;;;1.55;;
27293;SDS011;14785;52.556;13.430;2023-04-25T12:14:24;1.55;;;0.90;;
27293;SDS011;14785;52.556;13.430;2023-04-25T12:16:52;3.53;;;0.93;;
27293;SDS011;14785;52.556;13.430;2023-04-25T12:19:21;9.93;;;2.38;;
27293;SDS011;14785;52.556;13.430;2023-04-25T12:21:46;6.80;;;2.03;;
27293;SDS011;14785;52.556;13.430;2023-04-25T12:24:17;5.25;;;2.40;;
27293;SDS011;14785;52.556;13.430;2023-04-25T12:29:18;8.25;;;1.38;;
27293;SDS011;14785;52.556;13.430;2023-04-25T12:31:45;4.57;;;1.30;;
27293;SDS011;14785;52.556;13.430;2023-04-25T12:34:11;8.70;;;1.90;;
27293;SDS011;14785;52.556;13.430;2023-04-25T12:36:37;1.80;;;1.13;;
27293;SDS011;14785;52.556;13.430;2023-04-25T12:39:02;4.10;;;0.67;;
27293;SDS011;14785;52.556;13.430;2023-04-25T12:41:29;6.10;;;1.45;;
27293;SDS011;14785;52.556;13.430;2023-04-25T12:43:55;3.42;;;1.10;;
27293;SDS011;14785;52.556;13.430;2023-04-25T12:46:20;1.77;;;1.07;;
27293;SDS011;14785;52.556;13.430;2023-04-25T12:48:47;6.57;;;1.63;;
27293;SDS011;14785;52.556;13.430;2023-04-25T12:51:13;4.10;;;1.43;;
27293;SDS011;14785;52.556;13.430;2023-04-25T12:53:38;10.17;;;1.67;;
27293;SDS011;14785;52.556;13.430;2023-04-25T12:56:06;3.22;;;0.90;;
27293;SDS011;14785;52.556;13.430;2023-04-25T12:58:34;2.22;;;1.15;;
27293;SDS011;14785;52.556;13.430;2023-04-25T13:01:00;2.08;;;0.73;;
27293;SDS011;14785;52.556;13.430;2023-04-25T13:03:25;7.37;;;1.77;;
27293;SDS011;14785;52.556;13.430;2023-04-25T13:05:51;11.13;;;2.23;;
27293;SDS011;14785;52.556;13.430;2023-04-25T13:10:43;6.30;;;0.70;;
27293;SDS011;14785;52.556;13.430;2023-04-25T13:13:08;1.23;;;0.67;;
27293;SDS011;14785;52.556;13.430;2023-04-25T13:15:34;1.80;;;0.93;;
27293;SDS011;14785;52.556;13.430;2023-04-25T13:18:00;4.75;;;0.55;;
27293;SDS011;14785;52.556;13.430;2023-04-25T13:20:25;6.57;;;1.03;;
27293;SDS011;14785;52.556;13.430;2023-04-25T13:22:51;4.80;;;0.80;;
27293;SDS011;14785;52.556;13.430;2023-04-25T13:25:16;3.63;;;0.87;;
27293;SDS011;14785;52.556;13.430;2023-04-25T13:27:42;2.03;;;0.93;;
27293;SDS011;14785;52.556;13.430;2023-04-25T13:30:09;1.88;;;0.90;;
27293;SDS011;14785;52.556;13.430;2023-04-25T13:32:35;3.28;;;0.88;;
27293;SDS011;14785;52.556;13.430;2023-04-25T13:35:02;4.38;;;1.17;;
27293;SDS011;14785;52.556;13.430;2023-04-25T13:37:29;4.75;;;1.48;;
27293;SDS011;14785;52.556;13.430;2023-04-25T13:39:57;3.17;;;1.02;;
27293;SDS011;14785;52.556;13.430;2023-04-25T13:44:49;6.57;;;1.10;;
27293;SDS011;14785;52.556;13.430;2023-04-25T13:47:14;5.33;;;1.27;;
27293;SDS011;14785;52.556;13.430;2023-04-25T13:49:40;5.40;;;1.73;;
27293;SDS011;14785;52.556;13.430;2023-04-25T13:52:05;4.90;;;1.23;;
27293;SDS011;14785;52.556;13.430;2023-04-25T13:54:31;8.50;;;1.43;;
27293;SDS011;14785;52.556;13.430;2023-04-25T13:56:56;1.80;;;0.70;;
27293;SDS011;14785;52.556;13.430;2023-04-25T13:59:24;5.32;;;1.25;;
27293;SDS011;14785;52.556;13.430;2023-04-25T14:04:16;3.63;;;1.00;;
27293;SDS011;14785;52.556;13.430;2023-04-25T14:06:41;3.97;;;1.37;;
27293;SDS011;14785;52.556;13.430;2023-04-25T14:09:07;6.80;;;1.40;;
27293;SDS011;14785;52.556;13.430;2023-04-25T14:11:35;8.43;;;1.95;;
27293;SDS011;14785;52.556;13.430;2023-04-25T14:14:01;3.05;;;1.52;;
27293;SDS011;14785;52.556;13.430;2023-04-25T14:16:27;10.40;;;1.07;;
27293;SDS011;14785;52.556;13.430;2023-04-25T14:18:53;3.00;;;1.02;;
27293;SDS011;14785;52.556;13.430;2023-04-25T14:21:19;4.90;;;0.95;;
27293;SDS011;14785;52.556;13.430;2023-04-25T14:23:46;2.47;;;0.90;;
27293;SDS011;14785;52.556;13.430;2023-04-25T14:26:12;3.60;;;1.90;;
27293;SDS011;14785;52.556;13.430;2023-04-25T14:28:37;5.00;;;1.50;;
27293;SDS011;14785;52.556;13.430;2023-04-25T14:31:03;1.30;;;0.60;;
27293;SDS011;14785;52.556;13.430;2023-04-25T14:33:29;2.63;;;1.20;;
27293;SDS011;14785;52.556;13.430;2023-04-25T14:38:20;1.17;;;0.90;;
27293;SDS011;14785;52.556;13.430;2023-04-25T14:40:48;4.22;;;1.48;;
27293;SDS011;14785;52.556;13.430;2023-04-25T14:43:14;2.75;;;0.95;;
27293;SDS011;14785;52.556;13.430;2023-04-25T14:45:40;4.93;;;1.37;;
27293;SDS011;14785;52.556;13.430;2023-04-25T14:48:05;7.27;;;1.37;;
27293;SDS011;14785;52.556;13.430;2023-04-25T14:50:31;3.30;;;1.27;;
27293;SDS011;14785;52.556;13.430;2023-04-25T14:52:57;8.50;;;2.13;;
27293;SDS011;14785;52.556;13.430;2023-04-25T14:55:25;5.43;;;1.17;;
27293;SDS011;14785;52.556;13.430;2023-04-25T14:57:52;3.05;;;0.60;;
27293;SDS011;14785;52.556;13.430;2023-04-25T15:00:18;4.78;;;1.30;;
27293;SDS011;14785;52.556;13.430;2023-04-25T15:02:45;3.35;;;1.05;;
27293;SDS011;14785;52.556;13.430;2023-04-25T15:05:11;5.68;;;1.05;;
27293;SDS011;14785;52.556;13.430;2023-04-25T15:10:05;4.95;;;1.17;;